createdAt,value
2023-03-05T00:08:39.583Z,0.8
2023-03-05T00:09:10.931Z,0.8
2023-03-05T00:10:11.013Z,0.8
2023-03-05T00:11:10.920Z,0.8
2023-03-05T00:12:10.957Z,0.8
2023-03-05T00:13:10.938Z,0.7
2023-03-05T00:14:10.943Z,0.7
2023-03-05T00:15:10.935Z,0.7
2023-03-05T00:16:10.966Z,0.7
2023-03-05T00:17:10.952Z,0.7
2023-03-05T00:18:10.958Z,0.7
2023-03-05T00:19:10.932Z,0.7
2023-03-05T00:20:10.930Z,0.7
2023-03-05T00:21:10.973Z,0.7
2023-03-05T00:22:10.979Z,0.7
2023-03-05T00:23:10.978Z,0.6
2023-03-05T00:24:10.938Z,0.6
2023-03-05T00:25:10.938Z,0.6
2023-03-05T00:26:10.928Z,0.7
2023-03-05T00:27:10.964Z,0.7
2023-03-05T00:28:10.932Z,0.6
2023-03-05T00:29:10.968Z,0.6
2023-03-05T00:30:10.942Z,0.6
2023-03-05T00:31:11.330Z,0.6
2023-03-05T00:32:13.301Z,0.6
2023-03-05T00:33:15.276Z,0.6
2023-03-05T00:35:19.242Z,0.6
2023-03-05T00:36:21.258Z,0.6
2023-03-05T00:37:25.238Z,0.6
2023-03-05T00:38:27.248Z,0.6
2023-03-05T00:39:29.309Z,0.6
2023-03-05T00:40:31.304Z,0.6
2023-03-05T00:41:33.274Z,0.6
2023-03-05T00:42:35.248Z,0.6
2023-03-05T00:43:37.243Z,0.5
2023-03-05T00:44:39.281Z,0.5
2023-03-05T00:45:41.248Z,0.5
2023-03-05T00:46:43.395Z,0.5
2023-03-05T00:47:45.261Z,0.5
2023-03-05T00:48:47.332Z,0.5
2023-03-05T00:49:49.250Z,0.5
2023-03-05T00:50:51.253Z,0.5
2023-03-05T00:52:56.283Z,0.5
2023-03-05T00:53:58.250Z,0.4
2023-03-05T00:55:00.282Z,0.5
2023-03-05T00:56:02.273Z,0.4
2023-03-05T00:57:04.280Z,0.4
2023-03-05T00:58:06.253Z,0.4
2023-03-05T00:59:08.267Z,0.4
2023-03-05T01:00:10.259Z,0.4
2023-03-05T01:02:14.273Z,0.4
2023-03-05T01:03:16.266Z,0.4
2023-03-05T01:04:18.279Z,0.4
2023-03-05T01:05:21.328Z,0.4
2023-03-05T01:06:24.243Z,0.4
2023-03-05T01:07:26.289Z,0.4
2023-03-05T01:08:28.256Z,0.4
2023-03-05T01:09:30.252Z,0.4
2023-03-05T01:10:32.252Z,0.4
2023-03-05T01:11:34.249Z,0.4
2023-03-05T01:13:11.302Z,0.4
2023-03-05T01:14:10.977Z,0.4
2023-03-05T01:15:10.951Z,0.4
2023-03-05T01:16:10.977Z,0.4
2023-03-05T01:17:10.973Z,0.4
2023-03-05T01:18:10.947Z,0.4
2023-03-05T01:19:10.965Z,0.4
2023-03-05T01:20:10.944Z,0.4
2023-03-05T01:21:10.950Z,0.3
2023-03-05T01:22:10.948Z,0.3
2023-03-05T01:23:10.945Z,0.3
2023-03-05T01:24:10.961Z,0.3
2023-03-05T01:25:10.952Z,0.3
2023-03-05T01:26:10.946Z,0.3
2023-03-05T01:27:10.942Z,0.3
2023-03-05T01:28:10.964Z,0.3
2023-03-05T01:29:10.958Z,0.3
2023-03-05T01:30:10.960Z,0.3
2023-03-05T01:31:12.349Z,0.3
2023-03-05T01:32:14.290Z,0.2
2023-03-05T01:33:16.296Z,0.2
2023-03-05T01:34:18.255Z,0.2
2023-03-05T01:35:21.287Z,0.2
2023-03-05T01:36:24.244Z,0.2
2023-03-05T01:37:26.256Z,0.2
2023-03-05T01:38:28.306Z,0.2
2023-03-05T01:39:30.274Z,0.2
2023-03-05T01:40:32.258Z,0.2
2023-03-05T01:41:34.254Z,0.2
2023-03-05T01:42:36.262Z,0.2
2023-03-05T01:43:38.273Z,0.2
2023-03-05T01:44:40.280Z,0.2
2023-03-05T01:45:42.284Z,0.2
2023-03-05T01:46:44.260Z,0.2
2023-03-05T01:47:46.255Z,0.3
2023-03-05T01:48:48.270Z,0.3
2023-03-05T01:49:50.301Z,0.3
2023-03-05T01:50:52.265Z,0.3
2023-03-05T01:51:54.259Z,0.3
2023-03-05T01:52:56.260Z,0.3
2023-03-05T01:53:58.264Z,0.2
2023-03-05T01:55:00.281Z,0.2
2023-03-05T01:56:02.269Z,0.2
2023-03-05T01:57:04.318Z,0.2
2023-03-05T01:58:06.268Z,0.3
2023-03-05T01:59:09.316Z,0.2
2023-03-05T02:00:11.481Z,0.2
2023-03-05T02:01:13.358Z,0.2
2023-03-05T02:03:18.276Z,0.2
2023-03-05T02:04:21.335Z,0.2
2023-03-05T02:05:24.276Z,0.2
2023-03-05T02:06:26.273Z,0.2
2023-03-05T02:07:28.270Z,0.2
2023-03-05T02:08:30.317Z,0.2
2023-03-05T02:09:32.291Z,0.2
2023-03-05T02:10:34.264Z,0.2
2023-03-05T02:11:36.264Z,0.2
2023-03-05T02:12:38.325Z,0.2
2023-03-05T02:13:40.294Z,0.2
2023-03-05T02:14:42.278Z,0.2
2023-03-05T02:15:44.287Z,0.2
2023-03-05T02:16:46.300Z,0.2
2023-03-05T02:17:48.318Z,0.2
2023-03-05T02:18:50.278Z,0.2
2023-03-05T02:19:52.323Z,0.2
2023-03-05T02:20:54.301Z,0.2
2023-03-05T02:21:56.292Z,0.2
2023-03-05T02:22:58.314Z,0.1
2023-03-05T02:24:00.290Z,0.2
2023-03-05T02:25:02.280Z,0.2
2023-03-05T02:26:04.348Z,0.2
2023-03-05T02:27:06.304Z,0.2
2023-03-05T02:28:08.337Z,0.1
2023-03-05T02:29:10.295Z,0.1
2023-03-05T02:30:12.293Z,0.1
2023-03-05T02:31:14.283Z,0.1
2023-03-05T02:32:16.487Z,0.1
2023-03-05T02:33:18.308Z,0.1
2023-03-05T02:34:21.356Z,0.1
2023-03-05T02:35:24.369Z,0.1
2023-03-05T02:36:26.317Z,0.1
2023-03-05T02:37:28.304Z,0.1
2023-03-05T02:38:30.304Z,0.1
2023-03-05T02:39:32.300Z,0.1
2023-03-05T02:40:34.291Z,0.1
2023-03-05T02:41:37.333Z,0.1
2023-03-05T02:42:40.307Z,0.1
2023-03-05T02:44:11.066Z,0.1
2023-03-05T02:45:10.984Z,0.1
2023-03-05T02:46:11.068Z,0.1
2023-03-05T02:47:11.023Z,0.1
2023-03-05T02:48:11.003Z,0.1
2023-03-05T02:49:10.993Z,0.1
2023-03-05T02:50:57.296Z,0.1
2023-03-05T02:51:59.305Z,0.1
2023-03-05T02:53:11.007Z,0.1
2023-03-05T02:55:10.997Z,0.1
2023-03-05T02:56:11.032Z,0.1
2023-03-05T02:57:11.014Z,0.1
2023-03-05T02:58:22.676Z,0
2023-03-05T03:02:21.378Z,0
2023-03-05T03:03:33.458Z,0
2023-03-05T03:04:36.409Z,0
2023-03-05T03:05:38.416Z,0
2023-03-05T03:06:40.404Z,0
2023-03-05T03:07:42.433Z,0
2023-03-05T03:08:44.423Z,0
2023-03-05T03:09:46.468Z,0
2023-03-05T03:10:48.421Z,0
2023-03-05T03:11:50.438Z,0
2023-03-05T03:12:52.413Z,0
2023-03-05T03:13:54.440Z,0
2023-03-05T03:14:56.418Z,0
2023-03-05T03:15:58.423Z,0
2023-03-05T03:17:00.493Z,0
2023-03-05T03:18:02.413Z,0
2023-03-05T03:19:04.440Z,0
2023-03-05T03:20:06.423Z,0
2023-03-05T03:21:08.430Z,0
2023-03-05T03:22:10.427Z,0
2023-03-05T03:23:12.437Z,0
2023-03-05T03:24:14.443Z,0
2023-03-05T03:25:16.437Z,0
2023-03-05T03:26:19.427Z,-0.1
2023-03-05T03:27:21.461Z,-0.1
2023-03-05T03:29:11.029Z,-0.1
2023-03-05T03:30:11.065Z,-0.1
2023-03-05T03:31:11.076Z,-0.1
2023-03-05T03:32:11.076Z,-0.1
2023-03-05T03:33:11.025Z,-0.1
2023-03-05T03:34:11.030Z,-0.1
2023-03-05T03:35:11.028Z,-0.1
2023-03-05T03:36:11.025Z,-0.1
2023-03-05T03:37:11.073Z,-0.1
2023-03-05T03:38:11.021Z,-0.1
2023-03-05T03:39:52.507Z,-0.1
2023-03-05T03:40:51.465Z,-0.1
2023-03-05T03:41:53.446Z,-0.1
2023-03-05T03:42:55.434Z,-0.1
2023-03-05T03:43:57.439Z,-0.1
2023-03-05T03:44:59.432Z,-0.1
2023-03-05T03:46:01.464Z,-0.1
2023-03-05T03:47:03.441Z,-0.1
2023-03-05T03:48:05.441Z,-0.1
2023-03-05T03:49:07.442Z,-0.1
2023-03-05T03:50:09.452Z,-0.1
2023-03-05T03:51:11.445Z,-0.1
2023-03-05T03:52:13.480Z,-0.1
2023-03-05T03:53:15.439Z,-0.2
2023-03-05T03:54:18.444Z,-0.2
2023-03-05T03:55:20.450Z,-0.2
2023-03-05T03:56:23.490Z,-0.2
2023-03-05T03:57:25.444Z,-0.2
2023-03-05T03:58:27.447Z,-0.2
2023-03-05T03:59:29.464Z,-0.2
2023-03-05T04:00:33.465Z,-0.2
2023-03-05T04:01:35.520Z,-0.2
2023-03-05T04:02:37.493Z,-0.2
2023-03-05T04:04:11.080Z,-0.2
2023-03-05T04:05:11.050Z,-0.2
2023-03-05T04:06:11.055Z,-0.2
2023-03-05T04:07:11.046Z,-0.2
2023-03-05T04:09:11.055Z,-0.2
2023-03-05T04:10:11.110Z,-0.2
2023-03-05T04:11:55.478Z,-0.2
2023-03-05T04:12:57.515Z,-0.2
2023-03-05T04:13:59.454Z,-0.2
2023-03-05T04:15:11.048Z,-0.2
2023-03-05T04:16:11.175Z,-0.2
2023-03-05T04:17:11.041Z,-0.2
2023-03-05T04:18:11.082Z,-0.2
2023-03-05T04:19:11.070Z,-0.2
2023-03-05T04:20:11.568Z,-0.2
2023-03-05T04:21:13.457Z,-0.3
2023-03-05T04:22:15.466Z,-0.3
2023-03-05T04:23:17.464Z,-0.3
2023-03-05T04:24:19.461Z,-0.3
2023-03-05T04:25:21.462Z,-0.3
2023-03-05T04:26:23.491Z,-0.3
2023-03-05T04:27:25.480Z,-0.3
2023-03-05T04:28:27.486Z,-0.3
2023-03-05T04:29:33.648Z,-0.3
2023-03-05T04:30:35.462Z,-0.3
2023-03-05T04:31:38.494Z,-0.3
2023-03-05T04:32:40.459Z,-0.3
2023-03-05T04:33:42.475Z,-0.3
2023-03-05T04:34:44.460Z,-0.3
2023-03-05T04:35:46.521Z,-0.3
2023-03-05T04:37:50.460Z,-0.3
2023-03-05T04:38:52.511Z,-0.3
2023-03-05T04:39:54.659Z,-0.3
2023-03-05T04:40:56.493Z,-0.3
2023-03-05T04:41:58.467Z,-0.3
2023-03-05T04:43:00.477Z,-0.3
2023-03-05T04:44:02.480Z,-0.3
2023-03-05T04:45:04.478Z,-0.3
2023-03-05T04:46:06.537Z,-0.3
2023-03-05T04:47:08.465Z,-0.3
2023-03-05T04:48:10.482Z,-0.3
2023-03-05T04:49:12.492Z,-0.3
2023-03-05T04:50:14.525Z,-0.3
2023-03-05T04:51:16.480Z,-0.3
2023-03-05T04:52:18.473Z,-0.3
2023-03-05T04:53:20.501Z,-0.3
2023-03-05T04:54:22.520Z,-0.4
2023-03-05T04:55:24.470Z,-0.3
2023-03-05T04:56:26.488Z,-0.3
2023-03-05T04:57:29.525Z,-0.3
2023-03-05T04:58:31.470Z,-0.3
2023-03-05T04:59:33.515Z,-0.3
2023-03-05T05:00:35.474Z,-0.4
2023-03-05T05:01:37.561Z,-0.4
2023-03-05T05:02:39.527Z,-0.4
2023-03-05T05:03:41.473Z,-0.4
2023-03-05T05:04:43.499Z,-0.4
2023-03-05T05:06:11.071Z,-0.4
2023-03-05T05:07:11.077Z,-0.4
2023-03-05T05:08:11.093Z,-0.4
2023-03-05T05:09:11.077Z,-0.5
2023-03-05T05:10:11.161Z,-0.5
2023-03-05T05:11:11.084Z,-0.4
2023-03-05T05:12:11.122Z,-0.4
2023-03-05T05:13:11.113Z,-0.4
2023-03-05T05:18:11.187Z,-0.5
2023-03-05T05:20:13.501Z,-0.4
2023-03-05T05:21:15.488Z,-0.4
2023-03-05T05:22:17.489Z,-0.4
2023-03-05T05:23:19.520Z,-0.4
2023-03-05T05:24:21.550Z,-0.4
2023-03-05T05:25:23.504Z,-0.4
2023-03-05T05:26:25.491Z,-0.4
2023-03-05T05:27:27.506Z,-0.4
2023-03-05T05:28:31.567Z,-0.5
2023-03-05T05:29:33.501Z,-0.5
2023-03-05T05:30:35.502Z,-0.4
2023-03-05T05:31:37.614Z,-0.4
2023-03-05T05:32:39.639Z,-0.4
2023-03-05T05:33:41.509Z,-0.4
2023-03-05T05:34:43.492Z,-0.4
2023-03-05T05:35:45.596Z,-0.4
2023-03-05T05:36:47.499Z,-0.5
2023-03-05T05:37:49.512Z,-0.4
2023-03-05T05:38:51.501Z,-0.4
2023-03-05T05:39:53.509Z,-0.5
2023-03-05T05:40:55.505Z,-0.5
2023-03-05T05:41:57.503Z,-0.5
2023-03-05T05:42:59.532Z,-0.5
2023-03-05T05:44:01.509Z,-0.5
2023-03-05T05:45:03.545Z,-0.5
2023-03-05T05:46:05.717Z,-0.5
2023-03-05T05:47:07.566Z,-0.5
2023-03-05T05:48:09.512Z,-0.5
2023-03-05T05:49:11.512Z,-0.5
2023-03-05T05:50:13.510Z,-0.4
2023-03-05T05:51:15.594Z,-0.4
2023-03-05T05:53:19.554Z,-0.5
2023-03-05T05:54:21.522Z,-0.4
2023-03-05T05:55:23.525Z,-0.4
2023-03-05T05:56:25.547Z,-0.5
2023-03-05T05:57:29.538Z,-0.5
2023-03-05T05:58:33.520Z,-0.5
2023-03-05T05:59:35.518Z,-0.4
2023-03-05T06:00:37.524Z,-0.4
2023-03-05T06:01:39.634Z,-0.4
2023-03-05T06:02:41.657Z,-0.4
2023-03-05T06:03:43.531Z,-0.4
2023-03-05T06:04:45.523Z,-0.4
2023-03-05T06:05:48.522Z,-0.5
2023-03-05T06:06:50.563Z,-0.5
2023-03-05T06:07:52.549Z,-0.5
2023-03-05T06:08:54.523Z,-0.6
2023-03-05T06:09:56.518Z,-0.6
2023-03-05T06:10:58.516Z,-0.6
2023-03-05T06:12:00.528Z,-0.5
2023-03-05T06:13:02.574Z,-0.5
2023-03-05T06:14:04.524Z,-0.5
2023-03-05T06:15:06.533Z,-0.5
2023-03-05T06:16:08.565Z,-0.5
2023-03-05T06:17:12.946Z,-0.5
2023-03-05T06:18:12.556Z,-0.5
2023-03-05T06:19:14.518Z,-0.6
2023-03-05T06:20:16.526Z,-0.6
2023-03-05T06:22:11.134Z,-0.5
2023-03-05T06:23:11.132Z,-0.5
2023-03-05T06:24:11.168Z,-0.5
2023-03-05T06:25:11.188Z,-0.5
2023-03-05T06:26:11.310Z,-0.5
2023-03-05T06:27:11.158Z,-0.5
2023-03-05T06:28:11.158Z,-0.5
2023-03-05T06:29:11.138Z,-0.5
2023-03-05T06:30:11.160Z,-0.5
2023-03-05T06:31:11.236Z,-0.5
2023-03-05T06:32:11.187Z,-0.4
2023-03-05T06:33:11.134Z,-0.4
2023-03-05T06:36:11.148Z,-0.4
2023-03-05T06:37:11.220Z,-0.4
2023-03-05T06:40:11.213Z,-0.4
2023-03-05T06:41:11.192Z,-0.4
2023-03-05T06:42:11.234Z,-0.5
2023-03-05T06:43:11.170Z,-0.5
2023-03-05T06:44:11.178Z,-0.5
2023-03-05T06:47:11.226Z,-0.5
2023-03-05T06:48:11.131Z,-0.4
2023-03-05T06:49:11.128Z,-0.4
2023-03-05T06:51:11.296Z,-0.4
2023-03-05T06:52:11.204Z,-0.4
2023-03-05T06:54:11.153Z,-0.5
2023-03-05T06:55:11.169Z,-0.5
2023-03-05T06:56:11.167Z,-0.5
2023-03-05T06:57:11.254Z,-0.4
2023-03-05T06:58:11.220Z,-0.4
2023-03-05T06:59:11.219Z,-0.4
2023-03-05T07:00:11.161Z,-0.4
2023-03-05T07:01:11.243Z,-0.4
2023-03-05T07:02:11.227Z,-0.4
2023-03-05T07:04:11.189Z,-0.4
2023-03-05T07:05:11.185Z,-0.4
2023-03-05T07:06:11.158Z,-0.4
2023-03-05T07:07:11.166Z,-0.5
2023-03-05T07:08:58.562Z,-0.5
2023-03-05T07:10:00.565Z,-0.5
2023-03-05T07:11:02.586Z,-0.5
2023-03-05T07:12:04.564Z,-0.5
2023-03-05T07:13:06.559Z,-0.5
2023-03-05T07:14:08.573Z,-0.6
2023-03-05T07:17:14.591Z,-0.5
2023-03-05T07:18:16.561Z,-0.5
2023-03-05T07:19:18.575Z,-0.5
2023-03-05T07:20:20.573Z,-0.5
2023-03-05T07:21:22.594Z,-0.5
2023-03-05T07:22:24.593Z,-0.5
2023-03-05T07:23:26.577Z,-0.5
2023-03-05T07:24:29.580Z,-0.5
2023-03-05T07:25:46.071Z,-0.5
2023-03-05T07:27:11.198Z,-0.4
2023-03-05T07:28:11.164Z,-0.4
2023-03-05T07:29:11.225Z,-0.4
2023-03-05T07:30:11.185Z,-0.4
2023-03-05T07:31:11.230Z,-0.4
2023-03-05T07:32:11.385Z,-0.4
2023-03-05T07:33:11.170Z,-0.4
2023-03-05T07:34:11.169Z,-0.4
2023-03-05T07:36:11.221Z,-0.4
2023-03-05T07:37:11.174Z,-0.4
2023-03-05T07:38:11.160Z,-0.4
2023-03-05T07:39:11.170Z,-0.4
2023-03-05T07:40:11.224Z,-0.4
2023-03-05T07:41:11.215Z,-0.4
2023-03-05T07:42:11.197Z,-0.4
2023-03-05T07:43:11.160Z,-0.5
2023-03-05T07:44:11.177Z,-0.5
2023-03-05T07:46:13.704Z,-0.5
2023-03-05T07:47:15.650Z,-0.4
2023-03-05T07:48:17.585Z,-0.4
2023-03-05T07:49:19.586Z,-0.4
2023-03-05T07:50:21.577Z,-0.3
2023-03-05T07:52:25.604Z,-0.3
2023-03-05T07:53:27.618Z,-0.3
2023-03-05T07:55:33.583Z,-0.3
2023-03-05T07:56:35.825Z,-0.3
2023-03-05T07:57:37.586Z,-0.3
2023-03-05T07:58:52.088Z,-0.3
2023-03-05T07:59:41.592Z,-0.3
2023-03-05T08:00:43.600Z,-0.2
2023-03-05T08:01:45.584Z,-0.2
2023-03-05T08:02:47.712Z,-0.2
2023-03-05T08:04:51.610Z,-0.2
2023-03-05T08:06:55.591Z,-0.2
2023-03-05T08:07:57.599Z,-0.2
2023-03-05T08:09:39.542Z,-0.1
2023-03-05T08:11:04.723Z,-0.1
2023-03-05T08:12:06.723Z,-0.1
2023-03-05T08:15:13.724Z,0
2023-03-05T08:16:28.154Z,0
2023-03-05T08:21:26.818Z,0
2023-03-05T08:23:31.817Z,0.1
2023-03-05T08:24:34.737Z,0.1
2023-03-05T08:26:11.195Z,0.1
2023-03-05T08:27:11.208Z,0.1
2023-03-05T08:28:11.197Z,0.2
2023-03-05T08:29:11.249Z,0.2
2023-03-05T08:30:11.200Z,0.2
2023-03-05T08:31:11.214Z,0.2
2023-03-05T08:33:54.739Z,0.2
2023-03-05T08:34:56.805Z,0.2
2023-03-05T08:35:58.757Z,0.2
2023-03-05T08:38:16.112Z,0.2
2023-03-05T08:40:06.845Z,0.3
2023-03-05T08:41:08.749Z,0.3
2023-03-05T08:42:10.743Z,0.3
2023-03-05T08:44:14.734Z,0.3
2023-03-05T08:46:18.753Z,0.3
2023-03-05T08:48:22.785Z,0.4
2023-03-05T08:49:24.788Z,0.4
2023-03-05T08:50:27.753Z,0.4
2023-03-05T08:51:30.625Z,0.4
2023-03-05T08:52:45.162Z,0.4
2023-03-05T08:54:04.120Z,0.4
2023-03-05T08:54:49.240Z,0.4
2023-03-05T08:55:51.156Z,0.4
2023-03-05T08:56:53.158Z,0.4
2023-03-05T08:59:13.524Z,0.4
2023-03-05T09:00:11.219Z,0.4
2023-03-05T09:01:11.224Z,0.4
2023-03-05T09:02:11.246Z,0.4
2023-03-05T09:07:11.285Z,0.4
2023-03-05T09:09:11.326Z,0.4
2023-03-05T09:10:11.289Z,0.3
2023-03-05T09:12:23.182Z,0.4
2023-03-05T09:14:27.179Z,0.4
2023-03-05T09:15:29.170Z,0.4
2023-03-05T09:16:31.255Z,0.4
2023-03-05T09:17:33.179Z,0.4
2023-03-05T09:18:35.172Z,0.4
2023-03-05T09:20:52.143Z,0.4
2023-03-05T09:21:42.122Z,0.4
2023-03-05T09:24:11.226Z,0.4
2023-03-05T09:25:11.231Z,0.4
2023-03-05T09:26:11.232Z,0.4
2023-03-05T09:27:11.318Z,0.4
2023-03-05T09:28:57.125Z,0.4
2023-03-05T09:29:59.120Z,0.4
2023-03-05T09:31:01.084Z,0.4
2023-03-05T09:32:03.345Z,0.3
2023-03-05T09:34:11.236Z,0.3
2023-03-05T09:36:12.125Z,0.3
2023-03-05T09:38:16.157Z,0.3
2023-03-05T09:39:18.095Z,0.3
2023-03-05T09:41:22.438Z,0.2
2023-03-05T09:42:24.096Z,0.2
2023-03-05T09:44:11.237Z,0.2
2023-03-05T09:45:32.125Z,0.2
2023-03-05T09:47:11.454Z,0.2
2023-03-05T09:49:11.246Z,0.2
2023-03-05T09:50:11.244Z,0.2
2023-03-05T09:51:11.238Z,0.2
2023-03-05T09:52:11.290Z,0.2
2023-03-05T09:53:11.253Z,0.1
2023-03-05T09:54:11.252Z,0.1
2023-03-05T09:55:11.251Z,0.1
2023-03-05T09:56:11.253Z,0.1
2023-03-05T09:57:11.288Z,0.1
2023-03-05T09:58:11.244Z,0.1
2023-03-05T09:59:11.253Z,0.1
2023-03-05T10:01:06.000Z,0.1
2023-03-05T10:03:10.134Z,0.1
2023-03-05T10:04:12.020Z,0.2
2023-03-05T10:05:14.013Z,0.2
2023-03-05T10:06:16.155Z,0.2
2023-03-05T10:08:20.061Z,0.2
2023-03-05T10:09:21.990Z,0.2
2023-03-05T10:10:24.036Z,0.3
2023-03-05T10:11:26.019Z,0.3
2023-03-05T10:12:28.105Z,0.3
2023-03-05T10:13:30.032Z,0.3
2023-03-05T10:14:32.056Z,0.3
2023-03-05T10:15:34.014Z,0.3
2023-03-05T10:16:36.138Z,0.4
2023-03-05T10:17:38.013Z,0.4
2023-03-05T10:18:40.056Z,0.4
2023-03-05T10:19:44.100Z,0.5
2023-03-05T10:20:47.015Z,0.5
2023-03-05T10:21:49.054Z,0.5
2023-03-05T10:23:54.008Z,0.5
2023-03-05T10:25:10.249Z,0.5
2023-03-05T10:28:16.245Z,0.6
2023-03-05T10:29:05.021Z,0.6
2023-03-05T10:30:07.053Z,0.6
2023-03-05T10:31:09.066Z,0.6
2023-03-05T10:33:13.071Z,0.7
2023-03-05T10:35:17.028Z,0.8
2023-03-05T10:36:19.025Z,0.7
2023-03-05T10:37:21.029Z,0.8
2023-03-05T10:39:25.073Z,0.8
2023-03-05T10:40:27.022Z,0.8
2023-03-05T10:42:31.344Z,0.8
2023-03-05T10:44:35.038Z,0.8
2023-03-05T10:46:39.091Z,0.9
2023-03-05T10:47:42.037Z,0.9
2023-03-05T10:48:44.073Z,0.9
2023-03-05T10:49:48.077Z,0.9
2023-03-05T10:50:51.021Z,0.9
2023-03-05T10:51:54.026Z,0.9
2023-03-05T10:52:56.046Z,0.9
2023-03-05T10:53:58.068Z,0.9
2023-03-05T10:55:00.054Z,0.9
2023-03-05T10:56:02.217Z,0.9
2023-03-05T10:57:16.182Z,0.9
2023-03-05T10:58:06.177Z,0.9
2023-03-05T10:59:08.211Z,0.9
2023-03-05T11:00:22.260Z,0.9
2023-03-05T11:02:15.274Z,0.9
2023-03-05T11:03:17.182Z,0.8
2023-03-05T11:04:19.222Z,0.8
2023-03-05T11:05:21.187Z,0.8
2023-03-05T11:06:23.219Z,0.8
2023-03-05T11:07:25.220Z,0.8
2023-03-05T11:08:27.215Z,0.8
2023-03-05T11:10:31.176Z,0.7
2023-03-05T11:11:33.206Z,0.7
2023-03-05T11:12:35.194Z,0.7
2023-03-05T11:15:11.286Z,0.7
2023-03-05T11:16:11.309Z,0.7
2023-03-05T11:17:11.356Z,0.7
2023-03-05T11:18:11.342Z,0.7
2023-03-05T11:19:11.272Z,0.7
2023-03-05T11:20:11.348Z,0.7
2023-03-05T11:21:11.303Z,0.7
2023-03-05T11:22:11.309Z,0.7
2023-03-05T11:23:11.533Z,0.6
2023-03-05T11:24:11.360Z,0.6
2023-03-05T11:25:11.300Z,0.6
2023-03-05T11:28:12.728Z,0.7
2023-03-05T11:29:11.368Z,0.7
2023-03-05T11:30:11.315Z,0.7
2023-03-05T11:31:11.455Z,0.6
2023-03-05T11:32:13.286Z,0.6
2023-03-05T11:33:28.193Z,0.6
2023-03-05T11:34:17.196Z,0.6
2023-03-05T11:36:21.238Z,0.6
2023-03-05T11:37:23.211Z,0.6
2023-03-05T11:38:25.200Z,0.6
2023-03-05T11:40:11.396Z,0.6
2023-03-05T11:41:11.316Z,0.6
2023-03-05T11:42:11.324Z,0.5
2023-03-05T11:43:11.314Z,0.6
2023-03-05T11:45:11.318Z,0.6
2023-03-05T11:46:11.369Z,0.6
2023-03-05T11:47:11.430Z,0.7
2023-03-05T11:48:11.325Z,0.7
2023-03-05T11:49:11.324Z,0.7
2023-03-05T11:50:11.314Z,0.7
2023-03-05T11:51:11.376Z,0.7
2023-03-05T11:52:11.327Z,0.7
2023-03-05T11:54:11.368Z,0.8
2023-03-05T11:55:11.305Z,0.8
2023-03-05T11:56:11.310Z,0.8
2023-03-05T11:57:11.319Z,0.9
2023-03-05T11:58:11.353Z,0.9
2023-03-05T11:59:11.382Z,0.9
2023-03-05T12:00:11.538Z,0.9
2023-03-05T12:01:11.343Z,0.9
2023-03-05T12:02:12.225Z,0.9
2023-03-05T12:03:14.273Z,0.9
2023-03-05T12:04:16.232Z,0.9
2023-03-05T12:05:19.219Z,0.9
2023-03-05T12:06:21.215Z,0.9
2023-03-05T12:07:23.224Z,0.9
2023-03-05T12:08:25.272Z,0.9
2023-03-05T12:09:27.255Z,0.9
2023-03-05T12:10:29.240Z,0.9
2023-03-05T12:11:31.238Z,0.9
2023-03-05T12:13:35.281Z,0.9
2023-03-05T12:14:37.237Z,0.9
2023-03-05T12:15:39.245Z,0.9
2023-03-05T12:16:43.249Z,0.9
2023-03-05T12:18:11.460Z,0.9
2023-03-05T12:19:11.341Z,0.9
2023-03-05T12:20:11.427Z,0.9
2023-03-05T12:21:11.380Z,1
2023-03-05T12:22:11.344Z,1
2023-03-05T12:23:11.342Z,1
2023-03-05T12:24:11.341Z,1
2023-03-05T12:26:02.243Z,1.1
2023-03-05T12:27:04.562Z,1.1
2023-03-05T12:28:06.248Z,1.1
2023-03-05T12:29:08.236Z,1.1
2023-03-05T12:30:10.247Z,1.2
2023-03-05T12:31:12.285Z,1.2
2023-03-05T12:32:14.304Z,1.3
2023-03-05T12:33:17.326Z,1.3
2023-03-05T12:34:19.243Z,1.3
2023-03-05T12:35:21.281Z,1.3
2023-03-05T12:36:23.236Z,1.3
2023-03-05T12:37:25.238Z,1.3
2023-03-05T12:38:27.369Z,1.3
2023-03-05T12:39:29.259Z,1.3
2023-03-05T12:40:31.250Z,1.3
2023-03-05T12:41:46.326Z,1.3
2023-03-05T12:42:35.252Z,1.4
2023-03-05T12:43:37.250Z,1.4
2023-03-05T12:44:39.254Z,1.4
2023-03-05T12:45:41.257Z,1.4
2023-03-05T12:46:47.351Z,1.4
2023-03-05T12:47:49.257Z,1.4
2023-03-05T12:48:51.350Z,1.4
2023-03-05T12:49:53.269Z,1.4
2023-03-05T12:50:55.245Z,1.4
2023-03-05T12:52:10.288Z,1.4
2023-03-05T12:54:01.277Z,1.4
2023-03-05T12:55:03.261Z,1.4
2023-03-05T12:56:05.590Z,1.4
2023-03-05T12:57:07.277Z,1.4
2023-03-05T12:58:09.296Z,1.4
2023-03-05T12:59:11.258Z,1.4
2023-03-05T13:00:13.259Z,1.4
2023-03-05T13:01:15.294Z,1.4
2023-03-05T13:02:17.264Z,1.4
2023-03-05T13:03:19.352Z,1.4
2023-03-05T13:04:21.311Z,1.4
2023-03-05T13:05:23.270Z,1.4
2023-03-05T13:06:25.251Z,1.4
2023-03-05T13:07:28.255Z,1.4
2023-03-05T13:08:30.266Z,1.3
2023-03-05T13:09:32.308Z,1.4
2023-03-05T13:10:34.268Z,1.3
2023-03-05T13:11:37.425Z,1.3
2023-03-05T13:12:39.281Z,1.3
2023-03-05T13:13:41.260Z,1.3
2023-03-05T13:14:43.320Z,1.3
2023-03-05T13:15:45.254Z,1.3
2023-03-05T13:16:47.322Z,1.3
2023-03-05T13:17:49.273Z,1.3
2023-03-05T13:18:51.283Z,1.3
2023-03-05T13:19:53.263Z,1.3
2023-03-05T13:20:55.288Z,1.3
2023-03-05T13:21:57.288Z,1.3
2023-03-05T13:22:59.266Z,1.3
2023-03-05T13:24:01.274Z,1.3
2023-03-05T13:25:11.483Z,1.3
2023-03-05T13:26:11.372Z,1.3
2023-03-05T13:27:11.451Z,1.3
2023-03-05T13:28:11.387Z,1.3
2023-03-05T13:29:11.472Z,1.3
2023-03-05T13:30:13.283Z,1.3
2023-03-05T13:31:15.331Z,1.3
2023-03-05T13:32:17.300Z,1.3
2023-03-05T13:34:11.439Z,1.4
2023-03-05T13:35:11.389Z,1.4
2023-03-05T13:36:11.386Z,1.4
2023-03-05T13:37:11.381Z,1.4
2023-03-05T13:38:11.426Z,1.4
2023-03-05T13:39:11.459Z,1.4
2023-03-05T13:40:11.443Z,1.4
2023-03-05T13:41:11.398Z,1.4
2023-03-05T13:42:38.904Z,1.4
2023-03-05T13:43:40.911Z,1.4
2023-03-05T13:44:43.926Z,1.4
2023-03-05T13:45:46.980Z,1.4
2023-03-05T13:46:48.929Z,1.5
2023-03-05T13:47:50.912Z,1.5
2023-03-05T13:48:53.935Z,1.5
2023-03-05T13:49:55.951Z,1.5
2023-03-05T13:51:10.369Z,1.5
2023-03-05T13:52:11.393Z,1.5
2023-03-05T13:53:11.432Z,1.5
2023-03-05T13:54:11.437Z,1.5
2023-03-05T13:55:11.432Z,1.5
2023-03-05T13:56:22.341Z,1.5
2023-03-05T13:57:11.382Z,1.5
2023-03-05T13:58:11.938Z,1.5
2023-03-05T13:59:14.473Z,1.5
2023-03-05T14:02:19.916Z,1.5
2023-03-05T14:03:21.924Z,1.5
2023-03-05T14:04:23.970Z,1.5
2023-03-05T14:05:25.920Z,1.5
2023-03-05T14:09:35.093Z,1.5
2023-03-05T14:11:38.920Z,1.5
2023-03-05T14:13:43.977Z,1.5
2023-03-05T14:14:46.941Z,1.5
2023-03-05T14:15:48.919Z,1.4
2023-03-05T14:16:51.013Z,1.5
2023-03-05T14:17:52.977Z,1.4
2023-03-05T14:18:54.945Z,1.4
2023-03-05T14:19:56.916Z,1.4
2023-03-05T14:20:59.631Z,1.4
2023-03-05T14:23:03.085Z,1.4
2023-03-05T14:24:11.609Z,1.4
2023-03-05T14:25:11.638Z,1.4
2023-03-05T14:26:11.418Z,1.4
2023-03-05T14:27:11.430Z,1.4
2023-03-05T14:28:12.940Z,1.4
2023-03-05T14:31:19.151Z,1.4
2023-03-05T14:32:21.977Z,1.4
2023-03-05T14:34:25.996Z,1.4
2023-03-05T14:35:28.147Z,1.4
2023-03-05T14:36:29.997Z,1.4
2023-03-05T14:37:46.299Z,1.4
2023-03-05T14:38:33.941Z,1.4
2023-03-05T14:39:35.933Z,1.4
2023-03-05T14:41:11.463Z,1.4
2023-03-05T14:43:11.460Z,1.4
2023-03-05T14:44:11.425Z,1.4
2023-03-05T14:45:11.479Z,1.5
2023-03-05T14:48:11.458Z,1.4
2023-03-05T14:49:11.420Z,1.4
2023-03-05T14:50:11.440Z,1.5
2023-03-05T14:51:11.469Z,1.4
2023-03-05T14:52:11.473Z,1.4
2023-03-05T14:53:11.490Z,1.4
2023-03-05T14:54:11.439Z,1.4
2023-03-05T14:55:11.432Z,1.4
2023-03-05T14:57:13.963Z,1.4
2023-03-05T14:58:16.008Z,1.4
2023-03-05T14:59:17.977Z,1.4
2023-03-05T15:00:19.960Z,1.4
2023-03-05T15:01:22.017Z,1.4
2023-03-05T15:02:24.080Z,1.3
2023-03-05T15:03:27.009Z,1.3
2023-03-05T15:04:29.006Z,1.3
2023-03-05T15:05:30.965Z,1.3
2023-03-05T15:06:33.204Z,1.3
2023-03-05T15:07:34.970Z,1.3
2023-03-05T15:08:37.002Z,1.3
2023-03-05T15:09:39.006Z,1.3
2023-03-05T15:10:40.986Z,1.3
2023-03-05T15:11:43.982Z,1.3
2023-03-05T15:12:46.977Z,1.2
2023-03-05T15:13:48.972Z,1.3
2023-03-05T15:14:51.002Z,1.3
2023-03-05T15:15:52.989Z,1.2
2023-03-05T15:16:55.016Z,1.2
2023-03-05T15:17:56.961Z,1.2
2023-03-05T15:18:58.969Z,1.2
2023-03-05T15:20:00.965Z,1.2
2023-03-05T15:21:02.960Z,1.2
2023-03-05T15:22:05.005Z,1.2
2023-03-05T15:23:06.969Z,1.2
2023-03-05T15:24:11.206Z,1.2
2023-03-05T15:25:10.974Z,1.2
2023-03-05T15:26:13.029Z,1.1
2023-03-05T15:27:15.010Z,1.2
2023-03-05T15:28:17.996Z,1.2
2023-03-05T15:29:19.970Z,1.2
2023-03-05T15:30:21.981Z,1.2
2023-03-05T15:31:23.984Z,1.2
2023-03-05T15:32:26.060Z,1.2
2023-03-05T15:33:28.061Z,1.2
2023-03-05T15:34:29.969Z,1.2
2023-03-05T15:35:32.020Z,1.2
2023-03-05T15:36:33.990Z,1.1
2023-03-05T15:37:35.983Z,1.1
2023-03-05T15:38:38.004Z,1.1
2023-03-05T15:39:40.065Z,1.1
2023-03-05T15:40:44.004Z,1.1
2023-03-05T15:41:46.981Z,1
2023-03-05T15:42:48.991Z,1
2023-03-05T15:43:50.980Z,1.1
2023-03-05T15:44:53.030Z,1.1
2023-03-05T15:45:55.055Z,1.1
2023-03-05T15:46:57.982Z,1.1
2023-03-05T15:47:59.984Z,1.1
2023-03-05T15:49:02.006Z,1.1
2023-03-05T15:50:04.184Z,1.1
2023-03-05T15:51:05.993Z,1.1
2023-03-05T15:52:07.998Z,1
2023-03-05T15:53:09.979Z,1
2023-03-05T15:54:11.994Z,1
2023-03-05T15:55:13.988Z,1
2023-03-05T15:56:16.004Z,0.9
2023-03-05T15:57:18.028Z,0.9
2023-03-05T15:58:19.989Z,0.9
2023-03-05T15:59:22.014Z,0.9
2023-03-05T16:00:25.565Z,0.9
2023-03-05T16:01:26.033Z,0.9
2023-03-05T16:02:28.031Z,0.9
2023-03-05T16:03:30.062Z,0.9
2023-03-05T16:04:33.034Z,0.9
2023-03-05T16:05:35.005Z,0.9
2023-03-05T16:06:37.013Z,0.9
2023-03-05T16:07:39.041Z,0.9